Time,TemperatureF,DewpointF,PressureIn,WindDirection,WindDirectionDegrees,WindSpeedMPH,WindSpeedGustMPH,Humidity,HourlyPrecipIn,Conditions,Clouds,dailyrainin,SoftwareType,DateUTC
2013-05-31 00:00:00,66.6,60.9,30.18,SW,225,0.0,0.0,82,0.00,,OVC,0.00,VWS V14.01,2013-05-31 04:00:00,
2013-05-31 01:00:00,67.0,61.0,30.18,SW,225,0.0,0.0,81,0.00,,OVC,0.00,VWS V14.01,2013-05-31 05:00:00,
2013-05-31 02:00:00,67.6,61.6,30.18,SW,225,0.0,2.0,81,0.00,,OVC,0.00,VWS V14.01,2013-05-31 06:00:00,
2013-05-31 03:00:00,66.9,62.6,30.17,WSW,248,0.0,2.0,86,0.00,,OVC,0.00,VWS V14.01,2013-05-31 07:00:00,
2013-05-31 04:00:00,66.3,62.3,30.16,WSW,248,0.0,4.0,87,0.00,,OVC,0.00,VWS V14.01,2013-05-31 08:00:00,
2013-05-31 05:00:00,65.3,62.0,30.15,WSW,248,0.0,2.0,89,0.00,,OVC,0.00,VWS V14.01,2013-05-31 09:00:00,
2013-05-31 06:00:00,64.2,62.1,30.15,WSW,248,0.0,2.0,93,0.00,,OVC,0.00,VWS V14.01,2013-05-31 10:00:00,
2013-05-31 07:00:00,63.7,62.2,30.17,WSW,248,0.0,3.0,95,0.00,,OVC,0.00,VWS V14.01,2013-05-31 11:00:00,
2013-05-31 08:00:00,63.8,62.6,30.18,SW,225,0.0,2.0,96,0.00,,OVC,0.00,VWS V14.01,2013-05-31 12:00:00,
2013-05-31 09:00:00,64.7,63.5,30.19,SW,225,0.0,4.0,96,0.00,,OVC,0.00,VWS V14.01,2013-05-31 13:00:00,
2013-05-31 10:00:00,66.3,63.6,30.19,WSW,248,0.0,5.0,91,0.00,,OVC,0.00,VWS V14.01,2013-05-31 14:00:00,
2013-05-31 11:00:00,68.2,63.2,30.20,SW,225,0.0,5.0,84,0.00,,OVC,0.00,VWS V14.01,2013-05-31 15:00:00,
2013-05-31 12:00:00,70.9,63.7,30.19,WSW,248,0.0,4.0,78,0.00,,OVC,0.00,VWS V14.01,2013-05-31 16:00:00,
2013-05-31 13:00:00,74.5,64.9,30.18,WSW,248,0.0,3.0,72,0.00,,OVC,0.00,VWS V14.01,2013-05-31 17:00:00,
2013-05-31 14:00:00,77.5,64.8,30.16,SW,225,0.0,6.0,65,0.00,,OVC,0.00,VWS V14.01,2013-05-31 18:00:00,
2013-05-31 15:00:00,79.2,63.7,30.13,WSW,248,1.0,6.0,59,0.00,,OVC,0.00,VWS V14.01,2013-05-31 19:00:00,
2013-05-31 16:00:00,79.6,66.4,30.12,SW,225,1.0,6.0,64,0.00,,OVC,0.00,VWS V14.01,2013-05-31 20:00:00,
2013-05-31 17:00:00,81.0,65.3,30.10,SSW,202,1.0,6.0,59,0.00,,OVC,0.00,VWS V14.01,2013-05-31 21:00:00,
2013-05-31 18:00:00,79.5,66.3,30.09,WSW,248,0.0,6.0,64,0.00,,OVC,0.00,VWS V14.01,2013-05-31 22:00:00,
2013-05-31 19:00:00,77.0,66.1,30.09,SW,225,0.0,4.0,69,0.00,,OVC,0.00,VWS V14.01,2013-05-31 23:00:00,
2013-05-31 20:00:00,74.4,65.6,30.09,SSE,158,0.0,3.0,74,0.00,,OVC,0.00,VWS V14.01,2013-06-01 00:00:00,
2013-05-31 21:00:00,70.3,63.1,30.09,SSE,158,0.0,1.0,78,0.00,,OVC,0.00,VWS V14.01,2013-06-01 01:00:00,
2013-05-31 22:00:00,69.2,62.4,30.09,SSE,158,0.0,0.0,79,0.00,,OVC,0.00,VWS V14.01,2013-06-01 02:00:00,
2013-05-31 23:00:00,69.4,62.2,30.09,SSE,158,0.0,0.0,78,0.00,,OVC,0.00,VWS V14.01,2013-06-01 03:00:00,